Time;durP1;ratioP1;P1;durP2;ratioP2;P2;SDS_P1;SDS_P2;PMS_P1;PMS_P2;Temp;Humidity;BMP_temperature;BMP_pressure;BME280_temperature;BME280_humidity;BME280_pressure;Samples;Min_cycle;Max_cycle;Signal;HPM_P1;HPM_P2
2022/01/01 00:01:27;;;;;;;297.65;225.20;;;;;;;11.32;100.00;102225.16;5023436;28;20035;-72
2022/01/01 00:03:53;;;;;;;260.63;192.88;;;;;;;11.33;100.00;102221.34;5049614;28;20071;-72
2022/01/01 00:06:18;;;;;;;255.50;180.95;;;;;;;11.10;100.00;102213.31;5058078;28;20064;-72
2022/01/01 00:08:44;;;;;;;238.07;164.80;;;;;;;11.21;100.00;102206.88;5051553;28;20419;-72
2022/01/01 00:11:09;;;;;;;237.02;164.48;;;;;;;11.26;100.00;102209.69;5057804;28;20020;-72
2022/01/01 00:13:44;;;;;;;222.75;147.52;;;;;;;11.26;100.00;102197.91;5035408;28;20043;-71
2022/01/01 00:16:09;;;;;;;205.30;139.00;;;;;;;11.35;100.00;102193.63;5055901;28;20086;-72
2022/01/01 00:18:41;;;;;;;197.27;129.43;;;;;;;11.37;100.00;102207.94;5045782;28;20033;-71
2022/01/01 00:21:06;;;;;;;194.63;120.75;;;;;;;11.13;100.00;102207.31;5050344;28;20354;-72
2022/01/01 00:23:33;;;;;;;177.68;116.60;;;;;;;11.43;100.00;102190.44;5042446;28;20040;-71
2022/01/01 00:25:58;;;;;;;183.15;111.05;;;;;;;11.40;100.00;102197.25;5039289;28;20032;-71
2022/01/01 00:28:24;;;;;;;172.00;107.50;;;;;;;11.32;100.00;102183.97;5044549;28;20029;-71
2022/01/01 00:30:49;;;;;;;169.80;103.22;;;;;;;11.59;100.00;102191.44;5056458;28;20188;-70
2022/01/01 00:33:15;;;;;;;163.85;101.20;;;;;;;11.54;100.00;102189.50;5037645;28;20036;-74
2022/01/01 00:35:43;;;;;;;161.68;93.53;;;;;;;11.46;100.00;102194.59;5047249;28;20041;-71
2022/01/01 00:38:09;;;;;;;155.25;94.43;;;;;;;11.62;100.00;102190.94;5052184;28;20045;-71
2022/01/01 00:40:34;;;;;;;154.77;92.50;;;;;;;11.45;100.00;102198.44;5057756;28;20028;-72
2022/01/01 00:43:03;;;;;;;167.52;100.15;;;;;;;11.68;100.00;102206.41;5054305;28;20596;-70
2022/01/01 00:45:28;;;;;;;170.35;99.70;;;;;;;11.58;100.00;102203.53;5054136;28;20127;-72
2022/01/01 00:47:54;;;;;;;163.38;96.13;;;;;;;11.54;100.00;102205.13;5037916;28;20059;-71
2022/01/01 00:50:19;;;;;;;171.10;97.47;;;;;;;11.63;100.00;102217.34;5039821;28;20044;-72
2022/01/01 00:52:49;;;;;;;151.75;87.20;;;;;;;11.53;100.00;102222.72;5040149;28;20113;-72
2022/01/01 00:55:14;;;;;;;173.95;101.50;;;;;;;11.67;100.00;102231.38;5019371;28;20024;-71
2022/01/01 00:57:40;;;;;;;167.60;92.57;;;;;;;11.63;100.00;102235.75;5055537;28;20332;-71
2022/01/01 01:00:07;;;;;;;167.02;94.07;;;;;;;11.68;100.00;102228.38;5039307;28;20067;-72
2022/01/01 01:02:32;;;;;;;176.00;99.82;;;;;;;11.77;100.00;102224.09;5062293;28;20501;-71
2022/01/01 01:04:58;;;;;;;170.20;91.60;;;;;;;11.66;100.00;102215.97;5048351;28;20487;-71
2022/01/01 01:07:24;;;;;;;173.00;94.30;;;;;;;11.72;100.00;102224.06;5036567;28;20035;-72
2022/01/01 01:09:50;;;;;;;175.00;96.20;;;;;;;11.76;100.00;102229.84;5034061;28;20226;-72
2022/01/01 01:12:22;;;;;;;171.90;92.70;;;;;;;11.85;100.00;102233.78;5024760;28;20029;-71
2022/01/01 01:14:47;;;;;;;168.60;87.97;;;;;;;11.87;100.00;102236.28;5044094;28;20028;-71
2022/01/01 01:17:13;;;;;;;169.25;90.72;;;;;;;11.86;100.00;102234.66;5061821;28;20102;-70
2022/01/01 01:19:39;;;;;;;153.48;83.35;;;;;;;11.84;100.00;102232.16;5061895;28;20058;-70
2022/01/01 01:22:05;;;;;;;144.00;77.55;;;;;;;11.90;100.00;102225.63;5062780;28;20063;-70
2022/01/01 01:24:31;;;;;;;154.80;78.00;;;;;;;11.93;100.00;102238.06;5062460;28;20067;-70
2022/01/01 01:27:00;;;;;;;146.10;77.20;;;;;;;11.70;100.00;102239.13;5061268;28;20395;-71
2022/01/01 01:29:26;;;;;;;140.90;74.38;;;;;;;11.91;100.00;102242.94;5063037;28;20413;-71
2022/01/01 01:31:51;;;;;;;151.73;72.93;;;;;;;11.84;100.00;102253.28;5064660;28;20109;-70
2022/01/01 01:34:17;;;;;;;127.68;66.05;;;;;;;11.83;100.00;102257.13;5061287;28;20047;-71
2022/01/01 01:36:42;;;;;;;122.40;65.50;;;;;;;11.94;100.00;102247.97;5065023;28;20033;-71
2022/01/01 01:39:08;;;;;;;129.23;61.92;;;;;;;12.05;100.00;102241.50;5053303;28;20049;-71
2022/01/01 01:41:34;;;;;;;123.53;61.90;;;;;;;11.80;100.00;102243.91;5045787;28;20103;-70
2022/01/01 01:44:00;;;;;;;118.57;60.15;;;;;;;11.99;100.00;102245.28;5043525;28;20037;-70
2022/01/01 01:46:26;;;;;;;115.15;57.55;;;;;;;12.03;100.00;102246.41;5064758;28;20032;-70
2022/01/01 01:48:52;;;;;;;117.93;53.70;;;;;;;12.06;100.00;102251.38;5067340;28;20071;-70
2022/01/01 01:51:17;;;;;;;82.93;41.17;;;;;;;12.12;100.00;102242.13;5066503;28;20427;-70
2022/01/01 01:53:43;;;;;;;76.45;32.67;;;;;;;12.08;100.00;102243.72;5066440;28;20059;-72
2022/01/01 01:56:08;;;;;;;58.88;25.27;;;;;;;12.05;100.00;102227.75;5053549;28;20108;-72
2022/01/01 01:58:34;;;;;;;51.90;24.23;;;;;;;12.16;100.00;102228.69;5035344;28;20035;-72
2022/01/01 02:01:20;;;;;;;52.50;20.63;;;;;;;12.18;100.00;102226.50;5048129;28;20040;-72
2022/01/01 02:03:48;;;;;;;52.30;22.13;;;;;;;12.09;100.00;102228.88;5055151;28;20453;-71
2022/01/01 02:06:14;;;;;;;50.33;22.85;;;;;;;12.21;100.00;102225.97;5043241;28;20489;-72
2022/01/01 02:08:40;;;;;;;38.53;19.23;;;;;;;12.05;100.00;102224.16;5059170;28;20048;-71
2022/01/01 02:11:05;;;;;;;47.10;18.02;;;;;;;12.20;100.00;102227.09;5065804;28;20435;-71
2022/01/01 02:14:00;;;;;;;48.20;19.50;;;;;;;12.28;100.00;102212.03;5053922;28;20037;-72
2022/01/01 02:18:53;;;;;;;50.20;22.90;;;;;;;12.12;100.00;102200.88;5067353;28;20071;-72
2022/01/01 02:21:20;;;;;;;60.15;25.95;;;;;;;12.18;100.00;102211.94;5044164;28;20047;-72
2022/01/01 02:23:47;;;;;;;60.38;27.42;;;;;;;12.34;100.00;102212.91;5043467;28;20033;-71
2022/01/01 02:26:15;;;;;;;62.85;26.45;;;;;;;12.17;100.00;102215.75;5047038;28;20337;-72
2022/01/01 02:28:42;;;;;;;60.70;28.23;;;;;;;12.14;100.00;102223.44;5047345;28;20055;-72
2022/01/01 02:31:08;;;;;;;76.15;30.80;;;;;;;12.12;100.00;102227.56;5046029;28;20446;-73
2022/01/01 02:33:34;;;;;;;65.80;28.63;;;;;;;12.32;100.00;102232.44;5055002;28;20339;-73
2022/01/01 02:36:00;;;;;;;61.63;29.75;;;;;;;12.32;100.00;102236.00;5062256;28;20039;-71
2022/01/01 02:38:25;;;;;;;65.75;32.03;;;;;;;12.39;100.00;102233.03;5057101;28;20053;-72
2022/01/01 02:40:53;;;;;;;59.92;29.90;;;;;;;12.52;100.00;102239.22;5049297;28;20072;-72
2022/01/01 02:43:19;;;;;;;58.53;28.98;;;;;;;12.48;100.00;102236.97;5041254;28;20124;-73
2022/01/01 02:45:44;;;;;;;72.80;30.30;;;;;;;12.44;100.00;102232.25;5066737;28;20317;-71
2022/01/01 02:48:13;;;;;;;69.70;30.80;;;;;;;12.61;100.00;102234.88;5041367;28;20515;-72
2022/01/01 02:50:38;;;;;;;63.83;30.40;;;;;;;12.76;100.00;102223.19;5043314;28;20021;-72
2022/01/01 02:53:11;;;;;;;55.30;29.02;;;;;;;12.59;100.00;102223.31;5042190;28;20048;-72
2022/01/01 02:55:37;;;;;;;70.95;30.88;;;;;;;12.60;100.00;102233.22;5040414;28;20397;-72
2022/01/01 02:58:03;;;;;;;58.33;29.58;;;;;;;12.53;100.00;102216.94;5047189;28;20033;-71
2022/01/01 03:00:28;;;;;;;61.88;29.30;;;;;;;12.83;100.00;102210.84;5064340;28;20051;-73
2022/01/01 03:02:54;;;;;;;57.22;30.17;;;;;;;12.94;100.00;102199.94;5065765;28;20029;-73
2022/01/01 03:05:20;;;;;;;69.88;30.25;;;;;;;12.77;100.00;102211.88;5052978;28;20327;-72
2022/01/01 03:07:47;;;;;;;51.85;27.35;;;;;;;12.83;100.00;102210.84;5018676;28;20082;-71
2022/01/01 03:10:12;;;;;;;52.70;25.52;;;;;;;12.75;100.00;102197.56;5030451;28;20316;-72
2022/01/01 03:12:38;;;;;;;61.67;26.73;;;;;;;12.98;100.00;102201.88;5046473;28;20139;-73
2022/01/01 03:15:03;;;;;;;58.05;26.98;;;;;;;12.73;100.00;102194.25;5036780;28;20131;-73
2022/01/01 03:17:29;;;;;;;59.28;26.50;;;;;;;12.94;100.00;102191.66;5065324;28;20035;-73
2022/01/01 03:19:54;;;;;;;54.15;25.73;;;;;;;12.63;100.00;102194.19;5044622;28;20059;-73
2022/01/01 03:22:21;;;;;;;57.15;25.67;;;;;;;12.78;100.00;102194.28;5012811;28;20029;-72
2022/01/01 03:24:46;;;;;;;48.67;24.92;;;;;;;12.88;100.00;102197.13;5043272;28;20080;-72
2022/01/01 03:27:11;;;;;;;52.67;25.08;;;;;;;12.84;100.00;102195.19;5063115;28;20109;-72
2022/01/01 03:29:38;;;;;;;50.53;23.48;;;;;;;12.90;100.00;102199.59;5059686;28;20431;-72
2022/01/01 03:32:04;;;;;;;46.70;25.67;;;;;;;12.91;100.00;102201.28;5050842;28;20057;-73
2022/01/01 03:34:30;;;;;;;53.90;27.08;;;;;;;12.71;100.00;102201.97;5054023;28;20133;-72
2022/01/01 03:36:56;;;;;;;51.70;29.02;;;;;;;12.77;100.00;102200.06;5044114;28;20024;-72
2022/01/01 03:39:27;;;;;;;58.25;29.88;;;;;;;12.63;100.00;102205.19;5047141;28;20060;-73
2022/01/01 03:41:53;;;;;;;54.53;29.05;;;;;;;12.59;100.00;102209.56;5013136;28;20127;-73
2022/01/01 03:44:18;;;;;;;49.97;27.92;;;;;;;12.61;100.00;102197.19;5044700;28;20029;-73
2022/01/01 03:46:44;;;;;;;50.80;26.27;;;;;;;12.73;100.00;102205.28;5028275;28;20044;-73
2022/01/01 03:49:10;;;;;;;52.85;27.17;;;;;;;12.78;100.00;102198.97;5025493;28;20052;-70
2022/01/01 03:51:36;;;;;;;46.55;25.80;;;;;;;12.91;100.00;102205.97;5036372;28;20115;-73
2022/01/01 03:54:01;;;;;;;54.10;26.00;;;;;;;12.67;100.00;102204.41;5043672;28;20123;-72
2022/01/01 03:56:27;;;;;;;45.13;25.60;;;;;;;12.91;100.00;102216.97;5043876;28;20025;-73
2022/01/01 03:58:52;;;;;;;48.95;24.33;;;;;;;12.67;100.00;102212.66;5038142;28;20036;-72
2022/01/01 04:01:18;;;;;;;44.30;23.60;;;;;;;12.63;100.00;102206.03;5047611;28;20487;-72
2022/01/01 04:03:43;;;;;;;50.78;23.63;;;;;;;12.80;100.00;102222.38;5057780;28;20032;-73
2022/01/01 04:06:09;;;;;;;37.65;21.17;;;;;;;12.70;100.00;102216.81;5010332;28;20536;-73
2022/01/01 04:08:35;;;;;;;45.58;22.25;;;;;;;12.92;100.00;102218.59;5057562;28;20494;-73
2022/01/01 04:11:01;;;;;;;46.42;22.38;;;;;;;12.97;100.00;102213.13;5033067;28;20117;-73
2022/01/01 04:13:26;;;;;;;41.97;22.15;;;;;;;12.95;100.00;102207.06;5026998;28;20452;-73
2022/01/01 04:15:52;;;;;;;43.88;22.83;;;;;;;13.01;100.00;102217.03;5032643;28;20040;-72
2022/01/01 04:18:27;;;;;;;40.42;22.98;;;;;;;12.94;100.00;102214.50;5052527;28;20032;-72
2022/01/01 04:20:52;;;;;;;44.88;24.63;;;;;;;12.84;100.00;102222.69;5053515;28;20036;-72
2022/01/01 04:23:17;;;;;;;49.00;25.42;;;;;;;12.95;100.00;102226.34;5061417;28;20036;-72
2022/01/01 04:25:44;;;;;;;47.47;25.27;;;;;;;13.15;100.00;102229.25;5062675;28;20492;-73
2022/01/01 04:28:10;;;;;;;48.15;25.30;;;;;;;13.10;100.00;102226.47;5062597;28;20036;-74
2022/01/01 04:30:35;;;;;;;43.13;24.88;;;;;;;13.13;100.00;102231.41;5047724;28;20028;-73
2022/01/01 04:33:02;;;;;;;45.20;24.40;;;;;;;13.01;100.00;102233.56;5062379;28;20545;-72
2022/01/01 04:35:28;;;;;;;45.03;24.05;;;;;;;13.33;100.00;102235.41;5028262;28;20115;-72
2022/01/01 04:37:53;;;;;;;45.63;23.92;;;;;;;13.28;100.00;102241.72;5044935;28;20123;-73
2022/01/01 04:40:19;;;;;;;40.97;23.80;;;;;;;13.39;100.00;102237.94;5062555;28;20028;-73
2022/01/01 04:42:44;;;;;;;42.30;23.00;;;;;;;13.34;100.00;102231.59;5030797;28;20058;-73
2022/01/01 04:45:11;;;;;;;43.88;22.27;;;;;;;13.39;100.00;102224.16;5054531;28;20239;-73
2022/01/01 04:47:36;;;;;;;42.80;22.13;;;;;;;13.30;100.00;102227.66;5030354;28;20037;-72
2022/01/01 04:50:04;;;;;;;46.00;22.08;;;;;;;13.33;100.00;102222.50;5041575;28;20032;-72
2022/01/01 04:52:30;;;;;;;34.63;19.55;;;;;;;13.44;100.00;102222.53;5047765;28;20020;-72
2022/01/01 04:54:55;;;;;;;33.63;19.02;;;;;;;13.40;100.00;102219.50;5034762;28;20040;-72
2022/01/01 04:57:24;;;;;;;37.60;18.17;;;;;;;13.24;100.00;102207.53;5050898;28;20430;-72
2022/01/01 04:59:50;;;;;;;35.17;19.63;;;;;;;13.16;100.00;102219.06;5037620;28;20029;-72
2022/01/01 05:02:16;;;;;;;31.60;18.40;;;;;;;12.94;100.00;102208.19;5025843;28;20396;-73
2022/01/01 05:04:42;;;;;;;36.38;17.92;;;;;;;12.96;100.00;102206.81;5040715;28;20063;-72
2022/01/01 05:07:07;;;;;;;34.05;18.02;;;;;;;13.10;100.00;102209.94;5051323;28;20143;-72
2022/01/01 05:09:33;;;;;;;27.27;17.10;;;;;;;13.30;100.00;102200.97;5032458;28;20059;-72
2022/01/01 05:11:58;;;;;;;29.50;16.17;;;;;;;13.19;100.00;102200.06;5026385;28;20021;-73
2022/01/01 05:14:24;;;;;;;27.88;15.32;;;;;;;13.22;100.00;102199.53;5041447;28;20186;-73
2022/01/01 05:16:53;;;;;;;32.58;16.38;;;;;;;12.90;100.00;102193.28;5061524;28;20066;-73
2022/01/01 05:19:19;;;;;;;33.60;16.27;;;;;;;13.03;100.00;102199.13;5058721;28;20024;-73
2022/01/01 05:21:45;;;;;;;29.38;16.73;;;;;;;13.15;100.00;102201.72;5046481;28;20034;-73
2022/01/01 05:24:17;;;;;;;29.20;16.80;;;;;;;12.99;100.00;102206.28;5059721;28;20040;-73
2022/01/01 05:26:43;;;;;;;32.43;16.87;;;;;;;13.02;100.00;102200.25;5030442;28;20016;-72
2022/01/01 05:29:09;;;;;;;28.88;16.67;;;;;;;13.22;100.00;102188.53;5016492;28;20273;-72
2022/01/01 05:31:34;;;;;;;33.15;17.40;;;;;;;13.05;100.00;102176.84;5026336;28;20052;-73
2022/01/01 05:34:00;;;;;;;33.05;17.77;;;;;;;13.24;100.00;102177.25;5026581;28;20037;-73
2022/01/01 05:36:25;;;;;;;32.00;16.80;;;;;;;13.21;100.00;102183.28;5024830;28;20040;-73
2022/01/01 05:38:50;;;;;;;29.25;16.33;;;;;;;13.18;100.00;102190.16;5045262;28;20049;-75
2022/01/01 05:41:16;;;;;;;30.98;17.60;;;;;;;13.03;100.00;102185.38;5046420;28;20391;-73
2022/01/01 05:43:41;;;;;;;32.45;18.08;;;;;;;13.11;100.00;102189.56;5026976;28;20057;-73
2022/01/01 05:46:08;;;;;;;29.52;19.15;;;;;;;13.16;100.00;102186.81;5050257;28;20056;-73
2022/01/01 05:48:34;;;;;;;33.03;17.58;;;;;;;12.93;100.00;102184.50;5047262;28;20040;-71
2022/01/01 05:50:59;;;;;;;32.92;17.73;;;;;;;12.87;100.00;102189.97;5047300;28;20046;-73
2022/01/01 05:53:25;;;;;;;30.17;16.70;;;;;;;12.92;100.00;102177.31;5061154;28;20033;-73
2022/01/01 05:55:51;;;;;;;26.30;16.15;;;;;;;13.00;100.00;102190.59;5064780;28;20356;-74
2022/01/01 05:58:16;;;;;;;24.25;15.00;;;;;;;13.09;100.00;102186.25;5034790;28;20040;-73
2022/01/01 06:00:42;;;;;;;27.25;16.02;;;;;;;12.89;100.00;102186.94;5060723;28;20099;-72
2022/01/01 06:03:09;;;;;;;27.25;14.85;;;;;;;13.02;100.00;102192.00;5046010;28;20028;-71
2022/01/01 06:05:34;;;;;;;25.33;14.50;;;;;;;13.13;100.00;102192.03;5034116;28;20057;-73
2022/01/01 06:08:00;;;;;;;25.48;14.15;;;;;;;13.01;100.00;102187.56;5022822;28;20383;-72
2022/01/01 06:10:27;;;;;;;21.95;13.60;;;;;;;13.27;100.00;102200.69;5030790;28;20041;-72
2022/01/01 06:12:53;;;;;;;28.80;14.65;;;;;;;13.22;100.00;102196.78;5062722;28;20039;-73
2022/01/01 06:15:19;;;;;;;27.08;14.73;;;;;;;12.96;100.00;102197.72;5061310;28;20028;-73
2022/01/01 06:17:44;;;;;;;23.05;13.63;;;;;;;12.97;100.00;102200.22;5054819;28;20029;-72
2022/01/01 06:20:12;;;;;;;28.48;13.15;;;;;;;13.21;100.00;102202.56;5036474;28;20040;-74
2022/01/01 06:22:38;;;;;;;25.52;13.63;;;;;;;13.45;100.00;102200.25;5042255;28;20028;-73
2022/01/01 06:25:04;;;;;;;20.27;12.75;;;;;;;13.40;100.00;102195.53;5058190;28;20719;-72
2022/01/01 06:27:30;;;;;;;20.20;12.00;;;;;;;13.34;100.00;102201.28;5059634;28;20471;-72
2022/01/01 06:29:55;;;;;;;24.67;12.10;;;;;;;13.54;100.00;102204.16;5061500;28;20020;-72
2022/01/01 06:32:21;;;;;;;22.17;12.10;;;;;;;13.59;100.00;102203.31;5064904;28;20437;-73
2022/01/01 06:34:46;;;;;;;21.90;12.23;;;;;;;13.65;100.00;102199.50;5063275;28;20387;-72
2022/01/01 06:37:13;;;;;;;24.63;11.20;;;;;;;13.52;100.00;102197.25;5067041;28;20419;-72
2022/01/01 06:39:39;;;;;;;20.10;10.88;;;;;;;13.57;100.00;102197.25;5061793;28;20041;-73
2022/01/01 06:42:04;;;;;;;18.98;10.63;;;;;;;13.48;100.00;102207.13;5065738;28;20035;-73
2022/01/01 06:44:30;;;;;;;20.70;11.43;;;;;;;13.37;100.00;102200.75;5047519;28;20025;-72
2022/01/01 06:46:55;;;;;;;17.15;10.70;;;;;;;13.34;100.00;102198.53;5064840;28;20399;-73
2022/01/01 06:49:21;;;;;;;19.52;10.50;;;;;;;13.32;100.00;102196.03;5061643;28;20111;-72
2022/01/01 06:51:46;;;;;;;15.77;9.60;;;;;;;13.44;100.00;102193.06;5065429;28;20451;-72
2022/01/01 06:54:13;;;;;;;18.65;10.27;;;;;;;13.51;100.00;102204.69;5043630;28;20040;-72
2022/01/01 06:56:38;;;;;;;18.40;9.38;;;;;;;13.44;100.00;102214.28;5031587;28;20528;-73
2022/01/01 06:59:04;;;;;;;14.70;9.18;;;;;;;13.56;100.00;102223.13;5048376;28;20267;-72
2022/01/01 07:01:29;;;;;;;20.13;9.52;;;;;;;13.32;100.00;102211.72;5043884;28;20044;-72
2022/01/01 07:03:55;;;;;;;15.05;8.75;;;;;;;13.52;100.00;102208.25;5025612;28;20029;-73
2022/01/01 07:06:21;;;;;;;16.30;9.27;;;;;;;13.45;100.00;102207.69;5025359;28;20115;-72
2022/01/01 07:08:46;;;;;;;18.02;9.50;;;;;;;13.35;100.00;102209.28;5025042;28;20139;-73
2022/01/01 07:11:12;;;;;;;15.98;9.20;;;;;;;13.42;100.00;102209.84;5043535;28;20901;-72
2022/01/01 07:13:38;;;;;;;19.67;8.73;;;;;;;13.54;100.00;102206.91;5058062;28;20237;-73
2022/01/01 07:16:04;;;;;;;19.17;9.02;;;;;;;13.21;100.00;102217.16;5065697;28;20024;-71
2022/01/01 07:18:30;;;;;;;17.92;8.65;;;;;;;13.30;100.00;102209.22;5028456;28;20128;-73
2022/01/01 07:20:56;;;;;;;17.83;8.75;;;;;;;13.35;100.00;102206.53;5039359;28;20421;-73
2022/01/01 07:23:21;;;;;;;15.38;8.80;;;;;;;13.42;100.00;102220.06;5047548;28;20024;-72
2022/01/01 07:25:47;;;;;;;16.27;8.77;;;;;;;13.35;100.00;102217.53;5044144;28;20546;-73
2022/01/01 07:28:14;;;;;;;14.60;8.88;;;;;;;13.35;100.00;102213.97;5043562;28;20040;-72
2022/01/01 07:30:40;;;;;;;17.13;8.88;;;;;;;13.42;100.00;102209.03;5026907;28;20056;-72
2022/01/01 07:33:06;;;;;;;15.18;8.73;;;;;;;13.42;100.00;102214.53;5053199;28;20488;-72
2022/01/01 07:35:36;;;;;;;18.52;9.18;;;;;;;13.45;100.00;102214.00;5018146;28;20666;-72
2022/01/01 07:38:04;;;;;;;15.95;8.60;;;;;;;13.39;100.00;102221.41;5027826;28;20292;-74
2022/01/01 07:40:32;;;;;;;18.83;9.27;;;;;;;13.38;100.00;102217.00;5053792;28;20542;-73
2022/01/01 07:42:58;;;;;;;14.65;8.88;;;;;;;13.42;100.00;102215.38;5034001;28;20037;-73
2022/01/01 07:45:36;;;;;;;16.27;9.13;;;;;;;13.56;100.00;102218.47;5039647;28;20074;-72
2022/01/01 07:48:01;;;;;;;14.43;8.63;;;;;;;13.48;100.00;102216.25;5064557;28;20174;-72
2022/01/01 07:50:27;;;;;;;13.98;8.55;;;;;;;13.41;100.00;102221.13;5058008;28;20418;-73
2022/01/01 07:52:55;;;;;;;16.42;9.35;;;;;;;13.38;100.00;102218.91;5030742;28;20032;-76
2022/01/01 07:55:30;;;;;;;15.88;9.52;;;;;;;13.51;100.00;102215.72;5046519;28;20044;-73
2022/01/01 08:00:40;;;;;;;20.30;9.88;;;;;;;13.47;100.00;102217.31;5048188;28;20514;-73
2022/01/01 08:03:06;;;;;;;16.73;10.25;;;;;;;13.54;100.00;102226.19;5045256;28;20029;-74
2022/01/01 08:05:31;;;;;;;18.02;9.77;;;;;;;13.55;100.00;102236.09;5014794;28;20028;-71
2022/01/01 08:07:56;;;;;;;17.83;10.02;;;;;;;13.30;100.00;102238.66;5038535;28;20039;-73
2022/01/01 08:10:23;;;;;;;19.20;10.32;;;;;;;13.39;100.00;102235.19;5037572;28;20036;-71
2022/01/01 08:12:49;;;;;;;14.15;9.30;;;;;;;13.62;100.00;102248.81;5030852;28;20164;-71
2022/01/01 08:15:15;;;;;;;18.70;11.07;;;;;;;13.11;100.00;102241.88;5042394;28;20458;-73
2022/01/01 08:17:41;;;;;;;16.63;10.60;;;;;;;13.40;100.00;102239.59;5042382;28;20077;-71
2022/01/01 08:20:07;;;;;;;19.50;10.52;;;;;;;13.24;100.00;102249.66;5044326;28;20456;-71
2022/01/01 08:22:32;;;;;;;20.67;11.15;;;;;;;13.44;100.00;102239.91;5022667;28;20043;-72
2022/01/01 08:24:58;;;;;;;18.02;11.55;;;;;;;13.35;100.00;102230.50;5009006;28;20116;-71
2022/01/01 08:27:24;;;;;;;21.60;11.90;;;;;;;12.78;100.00;102213.56;5056095;28;20471;-70
2022/01/01 08:29:49;;;;;;;19.48;11.55;;;;;;;13.34;100.00;102221.38;5060760;28;20430;-72
2022/01/01 08:32:15;;;;;;;17.92;11.20;;;;;;;13.34;100.00;102215.88;5063925;28;20063;-72
2022/01/01 08:34:41;;;;;;;18.83;12.95;;;;;;;13.40;100.00;102200.22;5050393;28;20131;-72
2022/01/01 08:37:06;;;;;;;17.63;12.30;;;;;;;13.28;100.00;102197.66;5041832;28;20052;-73
2022/01/01 08:39:32;;;;;;;19.15;12.15;;;;;;;13.08;100.00;102201.09;5046891;28;20048;-72
2022/01/01 08:41:57;;;;;;;20.90;13.70;;;;;;;12.88;100.00;102186.09;5045465;28;20027;-72
2022/01/01 08:44:25;;;;;;;22.48;13.95;;;;;;;13.20;100.00;102190.72;5028252;28;20120;-72
2022/01/01 08:46:51;;;;;;;21.63;15.25;;;;;;;13.21;100.00;102183.28;5044889;28;20502;-72
2022/01/01 08:49:17;;;;;;;21.67;14.95;;;;;;;13.06;100.00;102175.75;5042292;28;20043;-72
2022/01/01 08:51:43;;;;;;;21.85;14.40;;;;;;;13.15;100.00;102179.69;5059591;28;20032;-72
2022/01/01 08:54:11;;;;;;;20.75;14.80;;;;;;;13.11;100.00;102172.22;5039237;28;20213;-69
2022/01/01 08:56:37;;;;;;;26.02;15.45;;;;;;;13.12;100.00;102182.97;5035332;28;20400;-83
2022/01/01 08:59:03;;;;;;;21.20;15.32;;;;;;;12.97;100.00;102185.59;5030769;28;20032;-72
2022/01/01 09:01:29;;;;;;;22.15;15.05;;;;;;;13.13;100.00;102181.03;5040327;28;20028;-72
2022/01/01 09:03:55;;;;;;;22.15;15.05;;;;;;;13.22;100.00;102180.25;5024755;28;20029;-72
2022/01/01 09:06:20;;;;;;;24.73;16.70;;;;;;;13.34;100.00;102185.56;5048917;28;20054;-72
2022/01/01 09:08:46;;;;;;;23.83;15.90;;;;;;;13.22;100.00;102174.75;5038616;28;20534;-71
2022/01/01 09:11:13;;;;;;;21.67;14.48;;;;;;;13.26;100.00;102179.72;5041819;28;20035;-71
2022/01/01 09:13:42;;;;;;;24.38;15.48;;;;;;;13.23;100.00;102159.03;5040203;28;20056;-72
2022/01/01 09:16:14;;;;;;;22.17;15.65;;;;;;;13.12;100.00;102165.59;5043280;28;20467;-71
2022/01/01 09:18:41;;;;;;;23.70;16.20;;;;;;;13.12;100.00;102169.19;5052716;28;20468;-72
2022/01/01 09:21:07;;;;;;;25.05;17.27;;;;;;;13.13;100.00;102159.81;5047235;28;20036;-71
2022/01/01 09:23:32;;;;;;;24.88;16.85;;;;;;;13.24;100.00;102153.28;5020076;28;20040;-71
2022/01/01 09:26:00;;;;;;;27.90;17.23;;;;;;;13.50;100.00;102147.91;5043419;28;20040;-71
2022/01/01 09:28:31;;;;;;;24.10;17.98;;;;;;;13.29;100.00;102149.72;5025511;28;20090;-73
2022/01/01 09:30:57;;;;;;;24.77;18.02;;;;;;;13.37;100.00;102143.72;5025524;28;20029;-72
2022/01/01 09:33:27;;;;;;;28.83;18.45;;;;;;;13.18;100.00;102131.50;5057995;28;20401;-72
2022/01/01 09:35:52;;;;;;;30.98;19.95;;;;;;;13.16;100.00;102131.75;5059554;28;20295;-71
2022/01/01 09:38:18;;;;;;;33.95;23.05;;;;;;;13.03;100.00;102143.25;5059194;28;20032;-71
2022/01/01 09:40:43;;;;;;;35.25;24.33;;;;;;;13.18;100.00;102148.00;5054679;28;20124;-71
2022/01/01 09:43:11;;;;;;;35.75;24.38;;;;;;;12.97;100.00;102149.81;5034351;28;20052;-72
2022/01/01 09:45:38;;;;;;;38.45;25.73;;;;;;;13.14;100.00;102149.66;5062697;28;20150;-70
2022/01/01 09:48:04;;;;;;;40.58;25.95;;;;;;;13.18;100.00;102148.84;5063913;28;20024;-71
2022/01/01 09:50:31;;;;;;;38.72;25.13;;;;;;;13.21;100.00;102141.97;5059126;28;20029;-70
2022/01/01 09:52:56;;;;;;;37.70;25.15;;;;;;;13.46;100.00;102143.22;5014826;28;20142;-71
2022/01/01 09:55:21;;;;;;;37.60;24.85;;;;;;;13.30;100.00;102147.78;5042683;28;20128;-71
2022/01/01 09:57:48;;;;;;;41.33;25.08;;;;;;;12.90;100.00;102154.75;5057688;28;20250;-71
2022/01/01 10:00:14;;;;;;;43.05;26.65;;;;;;;13.17;100.00;102149.94;5062188;28;20475;-72
2022/01/01 10:02:39;;;;;;;43.58;26.48;;;;;;;13.46;100.00;102154.22;5060086;28;20132;-71
2022/01/01 10:05:05;;;;;;;50.38;28.17;;;;;;;13.34;100.00;102154.47;5035680;28;20077;-72
2022/01/01 10:07:32;;;;;;;51.97;30.40;;;;;;;13.14;100.00;102155.16;5065249;28;20025;-71
2022/01/01 10:09:57;;;;;;;52.25;31.17;;;;;;;13.16;100.00;102170.31;5044566;28;20051;-72
2022/01/01 10:12:43;;;;;;;53.88;31.67;;;;;;;13.03;100.00;102159.78;5055451;28;20033;-72
2022/01/01 10:15:08;;;;;;;53.05;31.45;;;;;;;12.92;100.00;102160.81;5044415;28;20032;-72
2022/01/01 10:17:34;;;;;;;55.13;32.60;;;;;;;12.96;100.00;102170.22;5059278;28;20478;-72
2022/01/01 10:20:01;;;;;;;58.42;34.38;;;;;;;13.11;100.00;102166.72;5056220;28;20032;-72
2022/01/01 10:22:27;;;;;;;51.28;31.55;;;;;;;13.10;100.00;102160.38;5062401;28;20083;-72
2022/01/01 10:28:00;;;;;;;50.47;31.30;;;;;;;13.29;100.00;102154.41;5043966;28;20062;-72
2022/01/01 10:30:28;;;;;;;50.47;30.65;;;;;;;13.29;100.00;102149.72;5043968;28;20025;-71
2022/01/01 10:33:14;;;;;;;49.28;29.23;;;;;;;13.34;100.00;102160.78;5043463;28;20110;-71
2022/01/01 10:35:43;;;;;;;44.88;27.90;;;;;;;13.51;100.00;102149.59;5040396;28;20529;-71
2022/01/01 10:38:13;;;;;;;47.88;29.02;;;;;;;13.09;100.00;102158.72;5043081;28;20270;-72
2022/01/01 10:40:39;;;;;;;44.53;27.58;;;;;;;13.36;100.00;102155.00;5044305;28;20103;-72
2022/01/01 10:43:05;;;;;;;44.13;28.52;;;;;;;13.67;100.00;102146.84;5028557;28;20025;-72
2022/01/01 10:45:39;;;;;;;46.53;29.08;;;;;;;13.58;100.00;102141.06;5059416;28;20021;-72
2022/01/01 10:51:07;;;;;;;45.75;27.58;;;;;;;13.62;100.00;102131.13;5047289;28;20033;-70
2022/01/01 10:53:34;;;;;;;39.28;26.98;;;;;;;13.79;100.00;102123.47;5043180;28;20158;-71
2022/01/01 10:56:15;;;;;;;39.50;25.73;;;;;;;13.73;100.00;102120.97;5061576;28;20070;-72
2022/01/01 10:58:42;;;;;;;36.92;25.13;;;;;;;13.88;100.00;102129.25;5040140;28;20032;-71
2022/01/01 11:01:08;;;;;;;37.92;24.15;;;;;;;13.86;100.00;102134.22;5044363;28;20029;-71
2022/01/01 11:03:38;;;;;;;34.00;23.10;;;;;;;14.23;100.00;102135.09;5031627;28;20036;-70
2022/01/01 11:06:17;;;;;;;35.15;22.55;;;;;;;14.09;100.00;102110.81;5062719;28;20189;-71
2022/01/01 11:08:46;;;;;;;34.45;22.63;;;;;;;14.09;100.00;102093.47;5051418;28;20061;-71